sensor_id;sensor_type;location;lat;lon;timestamp;P1;durP1;ratioP1;P2;durP2;ratioP2
15553;SDS011;7878;44.632;10.942;2022-12-20T00:00:16;78.50;;;41.07;;
15553;SDS011;7878;44.632;10.942;2022-12-20T00:02:42;71.60;;;40.33;;
15553;SDS011;7878;44.632;10.942;2022-12-20T00:05:07;70.00;;;41.53;;
15553;SDS011;7878;44.632;10.942;2022-12-20T00:07:33;73.03;;;41.07;;
15553;SDS011;7878;44.632;10.942;2022-12-20T00:09:59;71.37;;;38.40;;
15553;SDS011;7878;44.632;10.942;2022-12-20T00:12:24;75.67;;;39.33;;
15553;SDS011;7878;44.632;10.942;2022-12-20T00:14:51;77.37;;;40.30;;
15553;SDS011;7878;44.632;10.942;2022-12-20T00:17:16;76.33;;;39.10;;
15553;SDS011;7878;44.632;10.942;2022-12-20T00:19:43;76.00;;;40.53;;
15553;SDS011;7878;44.632;10.942;2022-12-20T00:22:09;68.70;;;39.07;;
15553;SDS011;7878;44.632;10.942;2022-12-20T00:24:34;76.43;;;41.30;;
15553;SDS011;7878;44.632;10.942;2022-12-20T00:27:01;72.60;;;39.20;;
15553;SDS011;7878;44.632;10.942;2022-12-20T00:29:26;71.07;;;39.33;;
15553;SDS011;7878;44.632;10.942;2022-12-20T00:31:52;72.77;;;39.63;;
15553;SDS011;7878;44.632;10.942;2022-12-20T00:34:17;79.33;;;40.47;;
15553;SDS011;7878;44.632;10.942;2022-12-20T00:36:43;71.20;;;38.77;;
15553;SDS011;7878;44.632;10.942;2022-12-20T00:39:09;72.70;;;40.43;;
15553;SDS011;7878;44.632;10.942;2022-12-20T00:41:35;74.40;;;39.00;;
15553;SDS011;7878;44.632;10.942;2022-12-20T00:44:01;80.03;;;39.47;;
15553;SDS011;7878;44.632;10.942;2022-12-20T00:46:27;70.87;;;38.50;;
15553;SDS011;7878;44.632;10.942;2022-12-20T00:48:55;72.20;;;38.90;;
15553;SDS011;7878;44.632;10.942;2022-12-20T00:51:22;76.33;;;38.80;;
15553;SDS011;7878;44.632;10.942;2022-12-20T00:53:49;72.10;;;38.87;;
15553;SDS011;7878;44.632;10.942;2022-12-20T00:56:15;66.23;;;37.97;;
15553;SDS011;7878;44.632;10.942;2022-12-20T00:58:42;76.73;;;38.57;;
15553;SDS011;7878;44.632;10.942;2022-12-20T01:01:17;73.57;;;38.77;;
15553;SDS011;7878;44.632;10.942;2022-12-20T01:03:43;72.63;;;39.13;;
15553;SDS011;7878;44.632;10.942;2022-12-20T01:06:09;71.17;;;36.40;;
15553;SDS011;7878;44.632;10.942;2022-12-20T01:08:35;67.20;;;35.27;;
15553;SDS011;7878;44.632;10.942;2022-12-20T01:11:05;70.93;;;37.07;;
15553;SDS011;7878;44.632;10.942;2022-12-20T01:13:33;75.40;;;37.50;;
15553;SDS011;7878;44.632;10.942;2022-12-20T01:16:05;62.73;;;34.17;;
15553;SDS011;7878;44.632;10.942;2022-12-20T01:18:36;69.13;;;35.43;;
15553;SDS011;7878;44.632;10.942;2022-12-20T01:21:09;71.63;;;36.57;;
15553;SDS011;7878;44.632;10.942;2022-12-20T01:23:37;71.13;;;34.00;;
15553;SDS011;7878;44.632;10.942;2022-12-20T01:26:04;74.20;;;35.83;;
15553;SDS011;7878;44.632;10.942;2022-12-20T01:28:33;68.10;;;35.10;;
15553;SDS011;7878;44.632;10.942;2022-12-20T01:31:00;76.07;;;36.47;;
15553;SDS011;7878;44.632;10.942;2022-12-20T01:33:26;72.33;;;36.23;;
15553;SDS011;7878;44.632;10.942;2022-12-20T01:35:56;73.73;;;35.37;;
15553;SDS011;7878;44.632;10.942;2022-12-20T01:38:22;77.13;;;35.37;;
15553;SDS011;7878;44.632;10.942;2022-12-20T01:40:48;76.23;;;36.93;;
15553;SDS011;7878;44.632;10.942;2022-12-20T01:43:14;70.43;;;36.87;;
15553;SDS011;7878;44.632;10.942;2022-12-20T01:45:42;68.63;;;35.77;;
15553;SDS011;7878;44.632;10.942;2022-12-20T01:48:08;71.83;;;36.43;;
15553;SDS011;7878;44.632;10.942;2022-12-20T01:50:35;65.40;;;35.37;;
15553;SDS011;7878;44.632;10.942;2022-12-20T01:53:01;76.77;;;36.70;;
15553;SDS011;7878;44.632;10.942;2022-12-20T01:55:29;76.30;;;35.87;;
15553;SDS011;7878;44.632;10.942;2022-12-20T01:57:57;74.57;;;35.63;;
15553;SDS011;7878;44.632;10.942;2022-12-20T02:00:26;73.00;;;37.20;;
15553;SDS011;7878;44.632;10.942;2022-12-20T02:02:52;74.53;;;35.53;;
15553;SDS011;7878;44.632;10.942;2022-12-20T02:05:20;71.83;;;35.30;;
15553;SDS011;7878;44.632;10.942;2022-12-20T02:07:48;76.47;;;35.20;;
15553;SDS011;7878;44.632;10.942;2022-12-20T02:10:18;70.20;;;35.57;;
15553;SDS011;7878;44.632;10.942;2022-12-20T02:12:46;72.87;;;35.20;;
15553;SDS011;7878;44.632;10.942;2022-12-20T02:18:35;70.70;;;33.43;;
15553;SDS011;7878;44.632;10.942;2022-12-20T02:30:17;72.47;;;35.03;;
15553;SDS011;7878;44.632;10.942;2022-12-20T02:32:56;75.63;;;34.50;;
15553;SDS011;7878;44.632;10.942;2022-12-20T02:35:26;68.77;;;35.63;;
15553;SDS011;7878;44.632;10.942;2022-12-20T02:37:55;72.43;;;36.13;;
15553;SDS011;7878;44.632;10.942;2022-12-20T02:40:36;73.90;;;37.37;;
15553;SDS011;7878;44.632;10.942;2022-12-20T02:43:06;71.87;;;33.77;;
15553;SDS011;7878;44.632;10.942;2022-12-20T02:45:53;70.27;;;34.13;;
15553;SDS011;7878;44.632;10.942;2022-12-20T02:48:23;71.90;;;36.10;;
15553;SDS011;7878;44.632;10.942;2022-12-20T02:50:51;70.57;;;33.93;;
15553;SDS011;7878;44.632;10.942;2022-12-20T02:53:21;74.57;;;35.10;;
15553;SDS011;7878;44.632;10.942;2022-12-20T02:58:38;71.13;;;35.63;;
15553;SDS011;7878;44.632;10.942;2022-12-20T03:01:28;73.37;;;35.97;;
15553;SDS011;7878;44.632;10.942;2022-12-20T03:03:57;69.27;;;34.40;;
15553;SDS011;7878;44.632;10.942;2022-12-20T03:06:24;69.07;;;33.23;;
15553;SDS011;7878;44.632;10.942;2022-12-20T03:08:50;70.60;;;35.23;;
15553;SDS011;7878;44.632;10.942;2022-12-20T03:11:16;75.43;;;35.87;;
15553;SDS011;7878;44.632;10.942;2022-12-20T03:13:41;68.50;;;34.53;;
15553;SDS011;7878;44.632;10.942;2022-12-20T03:16:07;72.87;;;36.47;;
15553;SDS011;7878;44.632;10.942;2022-12-20T03:18:34;67.87;;;34.60;;
15553;SDS011;7878;44.632;10.942;2022-12-20T03:21:00;74.03;;;35.03;;
15553;SDS011;7878;44.632;10.942;2022-12-20T03:23:26;70.30;;;34.07;;
15553;SDS011;7878;44.632;10.942;2022-12-20T03:25:52;81.07;;;37.10;;
15553;SDS011;7878;44.632;10.942;2022-12-20T03:28:18;66.67;;;34.47;;
15553;SDS011;7878;44.632;10.942;2022-12-20T03:30:43;77.93;;;34.73;;
15553;SDS011;7878;44.632;10.942;2022-12-20T03:33:10;73.00;;;36.07;;
15553;SDS011;7878;44.632;10.942;2022-12-20T03:35:35;70.87;;;35.77;;
15553;SDS011;7878;44.632;10.942;2022-12-20T03:38:01;72.47;;;35.17;;
15553;SDS011;7878;44.632;10.942;2022-12-20T03:40:27;81.20;;;35.90;;
15553;SDS011;7878;44.632;10.942;2022-12-20T03:42:52;77.17;;;36.97;;
15553;SDS011;7878;44.632;10.942;2022-12-20T03:45:18;68.80;;;34.63;;
15553;SDS011;7878;44.632;10.942;2022-12-20T03:47:44;72.67;;;36.43;;
15553;SDS011;7878;44.632;10.942;2022-12-20T03:50:09;78.37;;;37.00;;
15553;SDS011;7878;44.632;10.942;2022-12-20T03:52:36;77.70;;;36.37;;
15553;SDS011;7878;44.632;10.942;2022-12-20T03:55:01;70.67;;;33.07;;
15553;SDS011;7878;44.632;10.942;2022-12-20T03:57:28;78.77;;;36.27;;
15553;SDS011;7878;44.632;10.942;2022-12-20T03:59:54;72.50;;;34.37;;
15553;SDS011;7878;44.632;10.942;2022-12-20T04:02:20;73.67;;;37.13;;
15553;SDS011;7878;44.632;10.942;2022-12-20T04:04:46;76.90;;;37.50;;
15553;SDS011;7878;44.632;10.942;2022-12-20T04:07:12;72.47;;;36.20;;
15553;SDS011;7878;44.632;10.942;2022-12-20T04:09:38;76.17;;;37.30;;
15553;SDS011;7878;44.632;10.942;2022-12-20T04:12:04;80.07;;;37.17;;
15553;SDS011;7878;44.632;10.942;2022-12-20T04:14:30;73.47;;;37.10;;
15553;SDS011;7878;44.632;10.942;2022-12-20T04:16:56;75.73;;;36.20;;
15553;SDS011;7878;44.632;10.942;2022-12-20T04:19:21;72.83;;;36.73;;
15553;SDS011;7878;44.632;10.942;2022-12-20T04:21:47;68.93;;;36.10;;
15553;SDS011;7878;44.632;10.942;2022-12-20T04:24:13;75.03;;;37.47;;
15553;SDS011;7878;44.632;10.942;2022-12-20T04:26:39;72.33;;;36.23;;
15553;SDS011;7878;44.632;10.942;2022-12-20T04:29:05;74.50;;;39.27;;
15553;SDS011;7878;44.632;10.942;2022-12-20T04:31:31;74.87;;;37.40;;
15553;SDS011;7878;44.632;10.942;2022-12-20T04:33:56;70.73;;;36.67;;
15553;SDS011;7878;44.632;10.942;2022-12-20T04:36:22;71.37;;;35.53;;
15553;SDS011;7878;44.632;10.942;2022-12-20T04:38:48;74.53;;;37.67;;
15553;SDS011;7878;44.632;10.942;2022-12-20T04:41:13;71.17;;;37.87;;
15553;SDS011;7878;44.632;10.942;2022-12-20T04:43:56;77.20;;;36.33;;
15553;SDS011;7878;44.632;10.942;2022-12-20T04:46:23;70.93;;;37.73;;
15553;SDS011;7878;44.632;10.942;2022-12-20T04:48:50;71.67;;;36.53;;
15553;SDS011;7878;44.632;10.942;2022-12-20T04:51:16;69.10;;;37.33;;
15553;SDS011;7878;44.632;10.942;2022-12-20T04:53:42;80.43;;;37.47;;
15553;SDS011;7878;44.632;10.942;2022-12-20T04:56:11;74.67;;;38.50;;
15553;SDS011;7878;44.632;10.942;2022-12-20T04:58:42;79.30;;;38.67;;
15553;SDS011;7878;44.632;10.942;2022-12-20T05:01:08;74.13;;;37.57;;
15553;SDS011;7878;44.632;10.942;2022-12-20T05:03:34;75.47;;;37.10;;
15553;SDS011;7878;44.632;10.942;2022-12-20T05:06:00;70.83;;;36.60;;
15553;SDS011;7878;44.632;10.942;2022-12-20T05:08:26;70.83;;;34.30;;
15553;SDS011;7878;44.632;10.942;2022-12-20T05:10:51;70.60;;;35.70;;
15553;SDS011;7878;44.632;10.942;2022-12-20T05:13:17;71.97;;;35.53;;
15553;SDS011;7878;44.632;10.942;2022-12-20T05:15:43;77.33;;;36.83;;
15553;SDS011;7878;44.632;10.942;2022-12-20T05:18:09;72.80;;;35.53;;
15553;SDS011;7878;44.632;10.942;2022-12-20T05:20:35;74.70;;;37.27;;
15553;SDS011;7878;44.632;10.942;2022-12-20T05:23:01;71.17;;;36.07;;
15553;SDS011;7878;44.632;10.942;2022-12-20T05:25:45;76.00;;;37.03;;
15553;SDS011;7878;44.632;10.942;2022-12-20T05:28:32;72.67;;;34.43;;
15553;SDS011;7878;44.632;10.942;2022-12-20T05:30:57;71.00;;;36.80;;
15553;SDS011;7878;44.632;10.942;2022-12-20T05:33:25;76.67;;;36.60;;
15553;SDS011;7878;44.632;10.942;2022-12-20T05:35:51;74.60;;;36.83;;
15553;SDS011;7878;44.632;10.942;2022-12-20T05:38:16;77.50;;;37.80;;
15553;SDS011;7878;44.632;10.942;2022-12-20T05:40:42;77.53;;;39.03;;
15553;SDS011;7878;44.632;10.942;2022-12-20T05:43:08;78.53;;;37.80;;
15553;SDS011;7878;44.632;10.942;2022-12-20T05:45:34;72.67;;;35.43;;
15553;SDS011;7878;44.632;10.942;2022-12-20T05:48:00;73.63;;;36.80;;
15553;SDS011;7878;44.632;10.942;2022-12-20T05:50:25;78.97;;;39.17;;
15553;SDS011;7878;44.632;10.942;2022-12-20T05:52:51;77.53;;;36.87;;
15553;SDS011;7878;44.632;10.942;2022-12-20T05:55:17;74.83;;;36.60;;
15553;SDS011;7878;44.632;10.942;2022-12-20T05:57:42;74.37;;;35.30;;
15553;SDS011;7878;44.632;10.942;2022-12-20T06:00:08;74.03;;;36.57;;
15553;SDS011;7878;44.632;10.942;2022-12-20T06:02:35;76.43;;;37.07;;
15553;SDS011;7878;44.632;10.942;2022-12-20T06:05:01;76.03;;;37.03;;
15553;SDS011;7878;44.632;10.942;2022-12-20T06:07:27;74.03;;;36.60;;
15553;SDS011;7878;44.632;10.942;2022-12-20T06:09:53;75.30;;;38.30;;
15553;SDS011;7878;44.632;10.942;2022-12-20T06:12:19;81.07;;;38.77;;
15553;SDS011;7878;44.632;10.942;2022-12-20T06:14:45;81.53;;;37.77;;
15553;SDS011;7878;44.632;10.942;2022-12-20T06:17:11;76.93;;;36.00;;
15553;SDS011;7878;44.632;10.942;2022-12-20T06:19:37;80.43;;;38.50;;
15553;SDS011;7878;44.632;10.942;2022-12-20T06:22:05;86.87;;;38.90;;
15553;SDS011;7878;44.632;10.942;2022-12-20T06:24:32;83.77;;;40.03;;
15553;SDS011;7878;44.632;10.942;2022-12-20T06:26:58;80.63;;;38.47;;
15553;SDS011;7878;44.632;10.942;2022-12-20T06:29:24;75.70;;;39.60;;
15553;SDS011;7878;44.632;10.942;2022-12-20T06:31:50;80.47;;;39.13;;
15553;SDS011;7878;44.632;10.942;2022-12-20T06:34:16;73.20;;;37.83;;
15553;SDS011;7878;44.632;10.942;2022-12-20T06:36:42;79.23;;;36.60;;
15553;SDS011;7878;44.632;10.942;2022-12-20T06:39:07;79.30;;;37.03;;
15553;SDS011;7878;44.632;10.942;2022-12-20T06:41:33;85.20;;;38.13;;
15553;SDS011;7878;44.632;10.942;2022-12-20T06:43:59;76.60;;;39.13;;
15553;SDS011;7878;44.632;10.942;2022-12-20T06:46:25;73.93;;;38.10;;
15553;SDS011;7878;44.632;10.942;2022-12-20T06:48:51;69.53;;;38.57;;
15553;SDS011;7878;44.632;10.942;2022-12-20T06:51:17;68.17;;;36.07;;
15553;SDS011;7878;44.632;10.942;2022-12-20T06:53:43;81.27;;;38.73;;
15553;SDS011;7878;44.632;10.942;2022-12-20T06:56:09;74.87;;;38.50;;
15553;SDS011;7878;44.632;10.942;2022-12-20T06:58:34;80.97;;;36.10;;
15553;SDS011;7878;44.632;10.942;2022-12-20T07:01:00;74.50;;;37.87;;
15553;SDS011;7878;44.632;10.942;2022-12-20T07:03:26;82.77;;;38.30;;
15553;SDS011;7878;44.632;10.942;2022-12-20T07:05:52;73.43;;;37.23;;
15553;SDS011;7878;44.632;10.942;2022-12-20T07:08:18;74.70;;;39.90;;
15553;SDS011;7878;44.632;10.942;2022-12-20T07:10:44;81.83;;;40.70;;
15553;SDS011;7878;44.632;10.942;2022-12-20T07:13:10;79.07;;;39.07;;
15553;SDS011;7878;44.632;10.942;2022-12-20T07:15:35;76.40;;;39.50;;
15553;SDS011;7878;44.632;10.942;2022-12-20T07:18:02;84.00;;;40.87;;
15553;SDS011;7878;44.632;10.942;2022-12-20T07:20:28;78.83;;;41.67;;
15553;SDS011;7878;44.632;10.942;2022-12-20T07:22:54;87.50;;;43.37;;
15553;SDS011;7878;44.632;10.942;2022-12-20T07:25:20;85.40;;;42.23;;
15553;SDS011;7878;44.632;10.942;2022-12-20T07:27:46;75.47;;;40.00;;
15553;SDS011;7878;44.632;10.942;2022-12-20T07:30:14;82.57;;;42.17;;
15553;SDS011;7878;44.632;10.942;2022-12-20T07:32:40;74.87;;;40.17;;
15553;SDS011;7878;44.632;10.942;2022-12-20T07:35:06;84.37;;;42.73;;
15553;SDS011;7878;44.632;10.942;2022-12-20T07:37:32;91.80;;;43.83;;
15553;SDS011;7878;44.632;10.942;2022-12-20T07:39:58;91.03;;;44.80;;
15553;SDS011;7878;44.632;10.942;2022-12-20T07:42:23;85.87;;;44.40;;
15553;SDS011;7878;44.632;10.942;2022-12-20T07:44:49;83.37;;;42.17;;
15553;SDS011;7878;44.632;10.942;2022-12-20T07:47:15;81.30;;;42.57;;
15553;SDS011;7878;44.632;10.942;2022-12-20T07:49:40;82.80;;;42.83;;
15553;SDS011;7878;44.632;10.942;2022-12-20T07:52:06;85.00;;;42.90;;
15553;SDS011;7878;44.632;10.942;2022-12-20T07:54:40;87.60;;;43.60;;
15553;SDS011;7878;44.632;10.942;2022-12-20T07:57:11;79.17;;;41.67;;
15553;SDS011;7878;44.632;10.942;2022-12-20T07:59:50;81.07;;;42.37;;
15553;SDS011;7878;44.632;10.942;2022-12-20T08:02:26;84.30;;;42.87;;
15553;SDS011;7878;44.632;10.942;2022-12-20T08:05:01;79.17;;;42.47;;
15553;SDS011;7878;44.632;10.942;2022-12-20T08:07:29;88.37;;;43.23;;
15553;SDS011;7878;44.632;10.942;2022-12-20T08:09:55;76.60;;;42.33;;
15553;SDS011;7878;44.632;10.942;2022-12-20T08:12:22;82.17;;;43.00;;
15553;SDS011;7878;44.632;10.942;2022-12-20T08:14:50;77.60;;;42.00;;
15553;SDS011;7878;44.632;10.942;2022-12-20T08:17:20;74.10;;;42.47;;
15553;SDS011;7878;44.632;10.942;2022-12-20T08:19:46;85.07;;;44.33;;
15553;SDS011;7878;44.632;10.942;2022-12-20T08:22:13;79.33;;;42.30;;
15553;SDS011;7878;44.632;10.942;2022-12-20T08:24:39;85.17;;;43.80;;
15553;SDS011;7878;44.632;10.942;2022-12-20T08:27:04;77.33;;;42.83;;
15553;SDS011;7878;44.632;10.942;2022-12-20T08:29:30;85.47;;;42.33;;
15553;SDS011;7878;44.632;10.942;2022-12-20T08:31:56;78.10;;;43.37;;
15553;SDS011;7878;44.632;10.942;2022-12-20T08:34:21;78.53;;;42.50;;
15553;SDS011;7878;44.632;10.942;2022-12-20T08:36:47;84.43;;;43.33;;
15553;SDS011;7878;44.632;10.942;2022-12-20T08:39:13;73.57;;;41.93;;
15553;SDS011;7878;44.632;10.942;2022-12-20T08:41:38;82.77;;;42.10;;
15553;SDS011;7878;44.632;10.942;2022-12-20T08:44:04;87.47;;;43.80;;
15553;SDS011;7878;44.632;10.942;2022-12-20T08:46:31;98.10;;;45.07;;
15553;SDS011;7878;44.632;10.942;2022-12-20T08:48:57;92.27;;;45.87;;
15553;SDS011;7878;44.632;10.942;2022-12-20T08:51:22;84.53;;;43.63;;
15553;SDS011;7878;44.632;10.942;2022-12-20T08:53:48;78.63;;;42.80;;
15553;SDS011;7878;44.632;10.942;2022-12-20T08:56:15;86.47;;;45.50;;
15553;SDS011;7878;44.632;10.942;2022-12-20T08:58:42;91.93;;;43.53;;
15553;SDS011;7878;44.632;10.942;2022-12-20T09:01:09;83.23;;;45.30;;
15553;SDS011;7878;44.632;10.942;2022-12-20T09:03:37;85.63;;;44.13;;
15553;SDS011;7878;44.632;10.942;2022-12-20T09:06:04;103.90;;;52.07;;
15553;SDS011;7878;44.632;10.942;2022-12-20T09:08:33;89.63;;;45.03;;
15553;SDS011;7878;44.632;10.942;2022-12-20T09:11:06;80.67;;;41.07;;
15553;SDS011;7878;44.632;10.942;2022-12-20T09:13:37;86.07;;;41.87;;
15553;SDS011;7878;44.632;10.942;2022-12-20T09:16:04;78.77;;;41.10;;
15553;SDS011;7878;44.632;10.942;2022-12-20T09:18:30;76.93;;;37.40;;
15553;SDS011;7878;44.632;10.942;2022-12-20T09:20:59;76.07;;;40.63;;
15553;SDS011;7878;44.632;10.942;2022-12-20T09:23:27;78.13;;;41.30;;
15553;SDS011;7878;44.632;10.942;2022-12-20T09:25:53;75.37;;;38.83;;
15553;SDS011;7878;44.632;10.942;2022-12-20T09:28:20;77.03;;;39.47;;
15553;SDS011;7878;44.632;10.942;2022-12-20T09:30:46;78.33;;;40.23;;
15553;SDS011;7878;44.632;10.942;2022-12-20T09:33:12;80.13;;;40.63;;
15553;SDS011;7878;44.632;10.942;2022-12-20T09:35:44;71.30;;;40.63;;
15553;SDS011;7878;44.632;10.942;2022-12-20T09:38:11;71.30;;;40.10;;
15553;SDS011;7878;44.632;10.942;2022-12-20T09:40:37;74.30;;;39.30;;
15553;SDS011;7878;44.632;10.942;2022-12-20T09:43:03;79.27;;;39.27;;
15553;SDS011;7878;44.632;10.942;2022-12-20T09:45:33;85.57;;;45.97;;
15553;SDS011;7878;44.632;10.942;2022-12-20T09:48:00;84.57;;;42.97;;
15553;SDS011;7878;44.632;10.942;2022-12-20T09:50:46;91.80;;;45.27;;
15553;SDS011;7878;44.632;10.942;2022-12-20T09:56:12;89.60;;;45.63;;
15553;SDS011;7878;44.632;10.942;2022-12-20T09:59:02;105.57;;;49.40;;
15553;SDS011;7878;44.632;10.942;2022-12-20T10:01:29;106.33;;;49.43;;
15553;SDS011;7878;44.632;10.942;2022-12-20T10:03:58;108.03;;;52.13;;
15553;SDS011;7878;44.632;10.942;2022-12-20T10:06:45;108.63;;;53.37;;
15553;SDS011;7878;44.632;10.942;2022-12-20T10:23:54;116.50;;;51.47;;
15553;SDS011;7878;44.632;10.942;2022-12-20T10:26:25;108.33;;;51.40;;
15553;SDS011;7878;44.632;10.942;2022-12-20T10:28:51;107.57;;;51.67;;
15553;SDS011;7878;44.632;10.942;2022-12-20T10:31:17;102.17;;;50.63;;
15553;SDS011;7878;44.632;10.942;2022-12-20T10:33:43;107.20;;;51.57;;
15553;SDS011;7878;44.632;10.942;2022-12-20T10:38:50;109.37;;;52.00;;
15553;SDS011;7878;44.632;10.942;2022-12-20T10:41:18;115.97;;;51.60;;
15553;SDS011;7878;44.632;10.942;2022-12-20T10:43:54;107.93;;;51.33;;
15553;SDS011;7878;44.632;10.942;2022-12-20T10:46:36;106.23;;;52.07;;
15553;SDS011;7878;44.632;10.942;2022-12-20T10:52:00;87.50;;;42.33;;
15553;SDS011;7878;44.632;10.942;2022-12-20T10:57:11;83.27;;;43.73;;
15553;SDS011;7878;44.632;10.942;2022-12-20T10:59:44;70.80;;;39.53;;
15553;SDS011;7878;44.632;10.942;2022-12-20T11:02:20;75.50;;;39.60;;
15553;SDS011;7878;44.632;10.942;2022-12-20T11:05:02;72.10;;;37.63;;
15553;SDS011;7878;44.632;10.942;2022-12-20T11:07:34;74.20;;;40.40;;
15553;SDS011;7878;44.632;10.942;2022-12-20T11:15:27;79.43;;;41.63;;
15553;SDS011;7878;44.632;10.942;2022-12-20T11:31:57;79.37;;;41.47;;
15553;SDS011;7878;44.632;10.942;2022-12-20T11:37:22;78.27;;;43.77;;
15553;SDS011;7878;44.632;10.942;2022-12-20T11:45:34;80.67;;;43.73;;
15553;SDS011;7878;44.632;10.942;2022-12-20T11:48:56;76.53;;;44.43;;
15553;SDS011;7878;44.632;10.942;2022-12-20T11:54:25;78.63;;;43.63;;
15553;SDS011;7878;44.632;10.942;2022-12-20T11:57:09;71.90;;;43.03;;
15553;SDS011;7878;44.632;10.942;2022-12-20T12:00:02;78.43;;;43.17;;
15553;SDS011;7878;44.632;10.942;2022-12-20T12:02:36;78.77;;;43.93;;
15553;SDS011;7878;44.632;10.942;2022-12-20T12:05:24;74.97;;;43.20;;
15553;SDS011;7878;44.632;10.942;2022-12-20T12:07:55;71.90;;;42.90;;
15553;SDS011;7878;44.632;10.942;2022-12-20T12:10:25;71.63;;;42.43;;
15553;SDS011;7878;44.632;10.942;2022-12-20T12:13:05;73.13;;;43.93;;
15553;SDS011;7878;44.632;10.942;2022-12-20T12:18:24;75.73;;;46.93;;
15553;SDS011;7878;44.632;10.942;2022-12-20T12:24:05;72.90;;;45.93;;
15553;SDS011;7878;44.632;10.942;2022-12-20T12:26:38;74.20;;;47.10;;
15553;SDS011;7878;44.632;10.942;2022-12-20T12:42:46;88.23;;;50.07;;
15553;SDS011;7878;44.632;10.942;2022-12-20T12:45:15;77.00;;;49.13;;
15553;SDS011;7878;44.632;10.942;2022-12-20T12:47:52;72.03;;;47.93;;
15553;SDS011;7878;44.632;10.942;2022-12-20T12:53:05;72.33;;;47.80;;
15553;SDS011;7878;44.632;10.942;2022-12-20T12:55:52;73.60;;;47.10;;
15553;SDS011;7878;44.632;10.942;2022-12-20T13:16:38;74.67;;;47.63;;
15553;SDS011;7878;44.632;10.942;2022-12-20T13:19:14;70.90;;;46.63;;
15553;SDS011;7878;44.632;10.942;2022-12-20T13:35:27;68.53;;;47.43;;
15553;SDS011;7878;44.632;10.942;2022-12-20T13:51:19;73.30;;;46.17;;
15553;SDS011;7878;44.632;10.942;2022-12-20T13:53:53;67.80;;;46.93;;
15553;SDS011;7878;44.632;10.942;2022-12-20T13:58:53;66.80;;;45.27;;
15553;SDS011;7878;44.632;10.942;2022-12-20T14:01:20;72.10;;;46.83;;
15553;SDS011;7878;44.632;10.942;2022-12-20T14:03:48;65.00;;;44.70;;
15553;SDS011;7878;44.632;10.942;2022-12-20T14:06:15;64.87;;;45.43;;
15553;SDS011;7878;44.632;10.942;2022-12-20T14:08:45;63.77;;;44.23;;
15553;SDS011;7878;44.632;10.942;2022-12-20T14:11:19;60.87;;;43.73;;
15553;SDS011;7878;44.632;10.942;2022-12-20T14:16:18;63.70;;;44.83;;
15553;SDS011;7878;44.632;10.942;2022-12-20T14:19:03;64.47;;;44.20;;
15553;SDS011;7878;44.632;10.942;2022-12-20T14:21:38;62.00;;;43.30;;
15553;SDS011;7878;44.632;10.942;2022-12-20T14:24:16;57.37;;;40.90;;
15553;SDS011;7878;44.632;10.942;2022-12-20T14:26:45;59.47;;;41.07;;
15553;SDS011;7878;44.632;10.942;2022-12-20T14:29:17;62.17;;;43.30;;
15553;SDS011;7878;44.632;10.942;2022-12-20T14:31:45;64.27;;;42.30;;
15553;SDS011;7878;44.632;10.942;2022-12-20T14:34:16;64.60;;;42.53;;
15553;SDS011;7878;44.632;10.942;2022-12-20T14:36:49;64.40;;;44.10;;
15553;SDS011;7878;44.632;10.942;2022-12-20T14:39:22;60.00;;;42.10;;
15553;SDS011;7878;44.632;10.942;2022-12-20T14:42:00;63.83;;;42.80;;
15553;SDS011;7878;44.632;10.942;2022-12-20T14:44:32;62.17;;;42.60;;
15553;SDS011;7878;44.632;10.942;2022-12-20T14:47:21;66.70;;;43.63;;
15553;SDS011;7878;44.632;10.942;2022-12-20T14:49:53;63.03;;;41.60;;
15553;SDS011;7878;44.632;10.942;2022-12-20T14:52:29;68.53;;;44.60;;
15553;SDS011;7878;44.632;10.942;2022-12-20T14:55:06;62.03;;;41.63;;
15553;SDS011;7878;44.632;10.942;2022-12-20T14:57:44;60.07;;;42.67;;
15553;SDS011;7878;44.632;10.942;2022-12-20T15:10:40;60.10;;;42.00;;
15553;SDS011;7878;44.632;10.942;2022-12-20T15:13:16;59.93;;;42.20;;
15553;SDS011;7878;44.632;10.942;2022-12-20T15:15:44;66.43;;;43.30;;
15553;SDS011;7878;44.632;10.942;2022-12-20T15:18:16;60.13;;;43.13;;
15553;SDS011;7878;44.632;10.942;2022-12-20T15:20:44;60.47;;;41.27;;
15553;SDS011;7878;44.632;10.942;2022-12-20T15:23:14;67.00;;;41.00;;
15553;SDS011;7878;44.632;10.942;2022-12-20T15:25:41;62.63;;;41.97;;
15553;SDS011;7878;44.632;10.942;2022-12-20T15:28:18;63.13;;;40.73;;
15553;SDS011;7878;44.632;10.942;2022-12-20T15:30:49;58.73;;;40.83;;
15553;SDS011;7878;44.632;10.942;2022-12-20T15:33:17;56.63;;;39.77;;
15553;SDS011;7878;44.632;10.942;2022-12-20T15:35:55;54.93;;;39.10;;
15553;SDS011;7878;44.632;10.942;2022-12-20T15:38:22;53.43;;;39.73;;
15553;SDS011;7878;44.632;10.942;2022-12-20T15:40:49;57.67;;;39.07;;
15553;SDS011;7878;44.632;10.942;2022-12-20T15:43:18;57.73;;;39.70;;
15553;SDS011;7878;44.632;10.942;2022-12-20T15:45:45;58.77;;;41.13;;
15553;SDS011;7878;44.632;10.942;2022-12-20T15:48:15;55.40;;;40.30;;
15553;SDS011;7878;44.632;10.942;2022-12-20T15:50:43;57.13;;;39.43;;
15553;SDS011;7878;44.632;10.942;2022-12-20T15:53:14;51.57;;;37.67;;
15553;SDS011;7878;44.632;10.942;2022-12-20T15:55:41;60.73;;;39.83;;
15553;SDS011;7878;44.632;10.942;2022-12-20T15:58:08;57.40;;;39.47;;
15553;SDS011;7878;44.632;10.942;2022-12-20T16:00:35;53.17;;;38.10;;
15553;SDS011;7878;44.632;10.942;2022-12-20T16:03:04;61.20;;;39.53;;
15553;SDS011;7878;44.632;10.942;2022-12-20T16:05:32;56.17;;;39.07;;
15553;SDS011;7878;44.632;10.942;2022-12-20T16:07:59;54.77;;;38.43;;
15553;SDS011;7878;44.632;10.942;2022-12-20T16:10:25;57.73;;;39.77;;
15553;SDS011;7878;44.632;10.942;2022-12-20T16:12:50;55.80;;;36.57;;
15553;SDS011;7878;44.632;10.942;2022-12-20T16:15:20;56.37;;;37.77;;
15553;SDS011;7878;44.632;10.942;2022-12-20T16:17:46;59.23;;;35.90;;
15553;SDS011;7878;44.632;10.942;2022-12-20T16:20:12;54.90;;;36.77;;
15553;SDS011;7878;44.632;10.942;2022-12-20T16:22:38;49.50;;;36.13;;
15553;SDS011;7878;44.632;10.942;2022-12-20T16:25:03;51.87;;;35.87;;
15553;SDS011;7878;44.632;10.942;2022-12-20T16:27:29;48.47;;;35.00;;
15553;SDS011;7878;44.632;10.942;2022-12-20T16:29:55;56.43;;;36.50;;
15553;SDS011;7878;44.632;10.942;2022-12-20T16:32:21;51.63;;;37.90;;
15553;SDS011;7878;44.632;10.942;2022-12-20T16:34:49;53.40;;;37.43;;
15553;SDS011;7878;44.632;10.942;2022-12-20T16:37:15;50.97;;;36.83;;
15553;SDS011;7878;44.632;10.942;2022-12-20T16:39:41;57.10;;;39.50;;
15553;SDS011;7878;44.632;10.942;2022-12-20T16:42:14;48.77;;;36.53;;
15553;SDS011;7878;44.632;10.942;2022-12-20T16:44:41;54.60;;;38.77;;
15553;SDS011;7878;44.632;10.942;2022-12-20T16:47:08;56.30;;;38.83;;
15553;SDS011;7878;44.632;10.942;2022-12-20T16:49:35;60.27;;;39.37;;
15553;SDS011;7878;44.632;10.942;2022-12-20T16:52:00;52.30;;;37.90;;
15553;SDS011;7878;44.632;10.942;2022-12-20T16:54:28;56.47;;;38.70;;
15553;SDS011;7878;44.632;10.942;2022-12-20T16:56:54;59.30;;;41.40;;
15553;SDS011;7878;44.632;10.942;2022-12-20T16:59:21;58.60;;;40.20;;
15553;SDS011;7878;44.632;10.942;2022-12-20T17:01:47;52.07;;;38.57;;
15553;SDS011;7878;44.632;10.942;2022-12-20T17:04:15;62.33;;;39.03;;